sensor_id;sensor_type;location;lat;lon;timestamp;P1;durP1;ratioP1;P2;durP2;ratioP2
23712;SDS011;12035;49.978;8.298;2022-08-05T00:02:23;18.08;;;3.92;;
23712;SDS011;12035;49.978;8.298;2022-08-05T00:07:22;7.22;;;3.83;;
23712;SDS011;12035;49.978;8.298;2022-08-05T00:12:19;9.95;;;3.50;;
23712;SDS011;12035;49.978;8.298;2022-08-05T00:17:16;6.35;;;2.80;;
23712;SDS011;12035;49.978;8.298;2022-08-05T00:22:13;5.30;;;2.83;;
23712;SDS011;12035;49.978;8.298;2022-08-05T00:27:12;4.93;;;2.90;;
23712;SDS011;12035;49.978;8.298;2022-08-05T00:32:09;7.90;;;2.75;;
23712;SDS011;12035;49.978;8.298;2022-08-05T00:37:07;6.60;;;2.70;;
23712;SDS011;12035;49.978;8.298;2022-08-05T00:42:04;5.22;;;2.30;;
23712;SDS011;12035;49.978;8.298;2022-08-05T00:47:02;3.75;;;2.20;;
23712;SDS011;12035;49.978;8.298;2022-08-05T00:52:00;6.45;;;2.20;;
23712;SDS011;12035;49.978;8.298;2022-08-05T00:56:57;8.32;;;2.00;;
23712;SDS011;12035;49.978;8.298;2022-08-05T01:01:54;6.03;;;2.17;;
23712;SDS011;12035;49.978;8.298;2022-08-05T01:06:52;5.72;;;2.00;;
23712;SDS011;12035;49.978;8.298;2022-08-05T01:11:50;7.47;;;1.77;;
23712;SDS011;12035;49.978;8.298;2022-08-05T01:16:51;3.20;;;1.75;;
23712;SDS011;12035;49.978;8.298;2022-08-05T01:22:04;5.50;;;1.80;;
23712;SDS011;12035;49.978;8.298;2022-08-05T01:27:21;3.53;;;1.80;;
23712;SDS011;12035;49.978;8.298;2022-08-05T01:32:40;4.88;;;2.00;;
23712;SDS011;12035;49.978;8.298;2022-08-05T01:37:42;4.97;;;1.63;;
23712;SDS011;12035;49.978;8.298;2022-08-05T01:42:44;4.53;;;2.15;;
23712;SDS011;12035;49.978;8.298;2022-08-05T01:47:43;5.43;;;2.00;;
23712;SDS011;12035;49.978;8.298;2022-08-05T01:52:44;8.18;;;2.35;;
23712;SDS011;12035;49.978;8.298;2022-08-05T01:57:45;5.30;;;2.05;;
23712;SDS011;12035;49.978;8.298;2022-08-05T02:02:47;4.47;;;1.92;;
23712;SDS011;12035;49.978;8.298;2022-08-05T02:07:51;4.28;;;1.80;;
23712;SDS011;12035;49.978;8.298;2022-08-05T02:12:51;5.80;;;1.80;;
23712;SDS011;12035;49.978;8.298;2022-08-05T02:17:57;5.68;;;1.98;;
23712;SDS011;12035;49.978;8.298;2022-08-05T02:23:00;9.10;;;2.13;;
23712;SDS011;12035;49.978;8.298;2022-08-05T02:28:04;9.48;;;2.17;;
23712;SDS011;12035;49.978;8.298;2022-08-05T02:33:04;2.90;;;1.63;;
23712;SDS011;12035;49.978;8.298;2022-08-05T02:38:03;8.63;;;2.20;;
23712;SDS011;12035;49.978;8.298;2022-08-05T02:43:01;6.00;;;2.00;;
23712;SDS011;12035;49.978;8.298;2022-08-05T02:48:01;6.38;;;1.85;;
23712;SDS011;12035;49.978;8.298;2022-08-05T02:52:59;2.70;;;1.60;;
23712;SDS011;12035;49.978;8.298;2022-08-05T02:57:57;5.40;;;1.55;;
23712;SDS011;12035;49.978;8.298;2022-08-05T03:02:57;4.00;;;1.85;;
23712;SDS011;12035;49.978;8.298;2022-08-05T03:07:55;3.92;;;2.10;;
23712;SDS011;12035;49.978;8.298;2022-08-05T03:12:52;3.42;;;2.10;;
23712;SDS011;12035;49.978;8.298;2022-08-05T03:17:51;5.00;;;2.28;;
23712;SDS011;12035;49.978;8.298;2022-08-05T03:22:50;6.00;;;2.80;;
23712;SDS011;12035;49.978;8.298;2022-08-05T03:27:48;5.22;;;2.70;;
23712;SDS011;12035;49.978;8.298;2022-08-05T03:32:45;6.63;;;3.13;;
23712;SDS011;12035;49.978;8.298;2022-08-05T03:37:42;6.00;;;3.00;;
23712;SDS011;12035;49.978;8.298;2022-08-05T03:42:41;6.25;;;3.50;;
23712;SDS011;12035;49.978;8.298;2022-08-05T03:47:38;6.95;;;3.85;;
23712;SDS011;12035;49.978;8.298;2022-08-05T03:52:36;7.72;;;3.38;;
23712;SDS011;12035;49.978;8.298;2022-08-05T03:57:45;5.32;;;2.60;;
23712;SDS011;12035;49.978;8.298;2022-08-05T04:02:45;6.47;;;3.20;;
23712;SDS011;12035;49.978;8.298;2022-08-05T04:07:45;5.43;;;2.90;;
23712;SDS011;12035;49.978;8.298;2022-08-05T04:12:43;4.60;;;2.90;;
23712;SDS011;12035;49.978;8.298;2022-08-05T04:17:42;5.32;;;2.63;;
23712;SDS011;12035;49.978;8.298;2022-08-05T04:22:39;6.68;;;2.58;;
23712;SDS011;12035;49.978;8.298;2022-08-05T04:27:36;5.82;;;2.75;;
23712;SDS011;12035;49.978;8.298;2022-08-05T04:32:34;5.18;;;2.70;;
23712;SDS011;12035;49.978;8.298;2022-08-05T04:37:31;5.13;;;3.00;;
23712;SDS011;12035;49.978;8.298;2022-08-05T04:42:28;5.32;;;2.67;;
23712;SDS011;12035;49.978;8.298;2022-08-05T04:47:25;6.07;;;3.08;;
23712;SDS011;12035;49.978;8.298;2022-08-05T04:52:24;4.22;;;2.80;;
23712;SDS011;12035;49.978;8.298;2022-08-05T04:57:21;4.55;;;2.67;;
23712;SDS011;12035;49.978;8.298;2022-08-05T05:02:18;4.05;;;2.65;;
23712;SDS011;12035;49.978;8.298;2022-08-05T05:07:15;4.72;;;2.70;;
23712;SDS011;12035;49.978;8.298;2022-08-05T05:12:14;6.30;;;2.78;;
23712;SDS011;12035;49.978;8.298;2022-08-05T05:17:11;5.78;;;3.20;;
23712;SDS011;12035;49.978;8.298;2022-08-05T05:22:08;5.30;;;3.28;;
23712;SDS011;12035;49.978;8.298;2022-08-05T05:27:05;6.13;;;2.47;;
23712;SDS011;12035;49.978;8.298;2022-08-05T05:32:04;4.63;;;2.50;;
23712;SDS011;12035;49.978;8.298;2022-08-05T05:37:02;5.32;;;2.20;;
23712;SDS011;12035;49.978;8.298;2022-08-05T05:41:59;3.53;;;1.80;;
23712;SDS011;12035;49.978;8.298;2022-08-05T05:46:57;6.00;;;2.13;;
23712;SDS011;12035;49.978;8.298;2022-08-05T05:51:55;3.17;;;1.75;;
23712;SDS011;12035;49.978;8.298;2022-08-05T05:56:52;5.18;;;1.90;;
23712;SDS011;12035;49.978;8.298;2022-08-05T06:01:49;3.78;;;1.75;;
23712;SDS011;12035;49.978;8.298;2022-08-05T06:06:46;3.33;;;1.92;;
23712;SDS011;12035;49.978;8.298;2022-08-05T06:11:45;3.10;;;1.75;;
23712;SDS011;12035;49.978;8.298;2022-08-05T06:16:42;4.95;;;2.20;;
23712;SDS011;12035;49.978;8.298;2022-08-05T06:21:39;3.00;;;1.45;;
23712;SDS011;12035;49.978;8.298;2022-08-05T06:26:36;3.55;;;2.00;;
23712;SDS011;12035;49.978;8.298;2022-08-05T06:31:34;3.53;;;2.10;;
23712;SDS011;12035;49.978;8.298;2022-08-05T06:36:33;4.93;;;2.40;;
23712;SDS011;12035;49.978;8.298;2022-08-05T06:41:30;7.20;;;2.63;;
23712;SDS011;12035;49.978;8.298;2022-08-05T06:46:27;3.53;;;2.28;;
23712;SDS011;12035;49.978;8.298;2022-08-05T06:51:25;4.80;;;2.97;;
23712;SDS011;12035;49.978;8.298;2022-08-05T06:56:22;8.32;;;2.92;;
23712;SDS011;12035;49.978;8.298;2022-08-05T07:01:20;5.80;;;3.10;;
23712;SDS011;12035;49.978;8.298;2022-08-05T07:06:17;6.45;;;3.15;;
23712;SDS011;12035;49.978;8.298;2022-08-05T07:11:16;4.82;;;2.58;;
23712;SDS011;12035;49.978;8.298;2022-08-05T07:16:13;4.78;;;2.20;;
23712;SDS011;12035;49.978;8.298;2022-08-05T07:21:24;3.33;;;2.00;;
23712;SDS011;12035;49.978;8.298;2022-08-05T07:26:23;3.17;;;2.05;;
23712;SDS011;12035;49.978;8.298;2022-08-05T07:31:20;4.57;;;2.17;;
23712;SDS011;12035;49.978;8.298;2022-08-05T07:36:17;3.45;;;2.00;;
23712;SDS011;12035;49.978;8.298;2022-08-05T07:41:15;2.47;;;1.80;;
23712;SDS011;12035;49.978;8.298;2022-08-05T07:46:15;3.35;;;2.10;;
23712;SDS011;12035;49.978;8.298;2022-08-05T07:51:12;5.03;;;2.10;;
23712;SDS011;12035;49.978;8.298;2022-08-05T07:56:10;3.95;;;2.20;;
23712;SDS011;12035;49.978;8.298;2022-08-05T08:01:07;2.97;;;1.98;;
23712;SDS011;12035;49.978;8.298;2022-08-05T08:06:06;3.47;;;1.88;;
23712;SDS011;12035;49.978;8.298;2022-08-05T08:11:03;4.07;;;1.98;;
23712;SDS011;12035;49.978;8.298;2022-08-05T08:16:01;2.83;;;1.85;;
23712;SDS011;12035;49.978;8.298;2022-08-05T08:20:58;2.60;;;1.88;;
23712;SDS011;12035;49.978;8.298;2022-08-05T08:25:57;3.85;;;1.88;;
23712;SDS011;12035;49.978;8.298;2022-08-05T08:30:54;4.43;;;1.85;;
23712;SDS011;12035;49.978;8.298;2022-08-05T08:35:51;3.08;;;1.90;;
23712;SDS011;12035;49.978;8.298;2022-08-05T08:40:48;2.47;;;1.73;;
23712;SDS011;12035;49.978;8.298;2022-08-05T08:45:46;7.38;;;1.77;;
23712;SDS011;12035;49.978;8.298;2022-08-05T08:50:45;2.38;;;1.50;;
23712;SDS011;12035;49.978;8.298;2022-08-05T08:55:43;3.38;;;1.58;;
23712;SDS011;12035;49.978;8.298;2022-08-05T09:00:41;2.50;;;1.55;;
23712;SDS011;12035;49.978;8.298;2022-08-05T09:05:39;2.42;;;1.50;;
23712;SDS011;12035;49.978;8.298;2022-08-05T09:10:39;1.77;;;1.40;;
23712;SDS011;12035;49.978;8.298;2022-08-05T09:15:38;3.70;;;1.70;;
23712;SDS011;12035;49.978;8.298;2022-08-05T09:20:36;4.10;;;1.80;;
23712;SDS011;12035;49.978;8.298;2022-08-05T09:25:38;3.45;;;1.60;;
23712;SDS011;12035;49.978;8.298;2022-08-05T09:30:37;2.30;;;1.63;;
23712;SDS011;12035;49.978;8.298;2022-08-05T09:35:38;5.22;;;1.80;;
23712;SDS011;12035;49.978;8.298;2022-08-05T09:41:03;2.45;;;1.60;;
23712;SDS011;12035;49.978;8.298;2022-08-05T09:46:22;4.45;;;1.63;;
23712;SDS011;12035;49.978;8.298;2022-08-05T09:51:31;3.60;;;1.90;;
23712;SDS011;12035;49.978;8.298;2022-08-05T09:56:33;2.33;;;1.65;;
23712;SDS011;12035;49.978;8.298;2022-08-05T10:01:32;2.75;;;1.90;;
23712;SDS011;12035;49.978;8.298;2022-08-05T10:06:34;2.78;;;1.60;;
23712;SDS011;12035;49.978;8.298;2022-08-05T10:11:33;2.95;;;1.77;;
23712;SDS011;12035;49.978;8.298;2022-08-05T10:16:31;2.58;;;2.00;;
23712;SDS011;12035;49.978;8.298;2022-08-05T10:21:29;2.80;;;1.70;;
23712;SDS011;12035;49.978;8.298;2022-08-05T10:26:28;2.45;;;1.50;;
23712;SDS011;12035;49.978;8.298;2022-08-05T10:31:26;4.20;;;1.80;;
23712;SDS011;12035;49.978;8.298;2022-08-05T10:36:24;3.13;;;1.80;;
23712;SDS011;12035;49.978;8.298;2022-08-05T10:41:22;3.22;;;2.08;;
23712;SDS011;12035;49.978;8.298;2022-08-05T10:56:45;2.58;;;1.67;;
23712;SDS011;12035;49.978;8.298;2022-08-05T11:01:45;3.90;;;1.70;;
23712;SDS011;12035;49.978;8.298;2022-08-05T11:12:01;3.20;;;1.98;;
23712;SDS011;12035;49.978;8.298;2022-08-05T11:22:40;5.03;;;2.13;;
23712;SDS011;12035;49.978;8.298;2022-08-05T11:27:39;3.67;;;2.00;;
23712;SDS011;12035;49.978;8.298;2022-08-05T11:32:38;4.03;;;2.22;;
23712;SDS011;12035;49.978;8.298;2022-08-05T11:37:42;3.45;;;1.80;;
23712;SDS011;12035;49.978;8.298;2022-08-05T11:42:56;3.80;;;2.00;;
23712;SDS011;12035;49.978;8.298;2022-08-05T11:47:54;3.63;;;2.20;;
23712;SDS011;12035;49.978;8.298;2022-08-05T11:52:54;2.83;;;2.00;;
23712;SDS011;12035;49.978;8.298;2022-08-05T11:57:51;3.13;;;2.00;;
23712;SDS011;12035;49.978;8.298;2022-08-05T12:02:48;3.30;;;2.00;;
23712;SDS011;12035;49.978;8.298;2022-08-05T12:07:47;2.83;;;2.20;;
23712;SDS011;12035;49.978;8.298;2022-08-05T12:12:45;3.78;;;2.20;;
23712;SDS011;12035;49.978;8.298;2022-08-05T12:17:43;4.95;;;2.33;;
23712;SDS011;12035;49.978;8.298;2022-08-05T12:22:40;3.10;;;2.20;;
23712;SDS011;12035;49.978;8.298;2022-08-05T12:27:39;3.17;;;2.30;;
23712;SDS011;12035;49.978;8.298;2022-08-05T12:32:42;3.20;;;2.30;;
23712;SDS011;12035;49.978;8.298;2022-08-05T12:37:41;3.30;;;2.08;;
23712;SDS011;12035;49.978;8.298;2022-08-05T12:42:40;3.75;;;2.28;;
23712;SDS011;12035;49.978;8.298;2022-08-05T12:47:37;4.78;;;2.30;;
23712;SDS011;12035;49.978;8.298;2022-08-05T12:52:35;4.13;;;2.22;;
23712;SDS011;12035;49.978;8.298;2022-08-05T12:57:34;3.72;;;2.55;;
23712;SDS011;12035;49.978;8.298;2022-08-05T13:02:34;2.97;;;2.50;;
23712;SDS011;12035;49.978;8.298;2022-08-05T13:07:31;3.28;;;2.33;;
23712;SDS011;12035;49.978;8.298;2022-08-05T13:12:29;3.15;;;2.20;;
23712;SDS011;12035;49.978;8.298;2022-08-05T13:17:26;4.43;;;2.40;;
23712;SDS011;12035;49.978;8.298;2022-08-05T13:22:26;3.28;;;2.25;;
23712;SDS011;12035;49.978;8.298;2022-08-05T13:27:24;3.63;;;2.40;;
23712;SDS011;12035;49.978;8.298;2022-08-05T13:32:22;3.22;;;2.50;;
23712;SDS011;12035;49.978;8.298;2022-08-05T13:37:19;3.92;;;2.20;;
23712;SDS011;12035;49.978;8.298;2022-08-05T13:42:19;3.10;;;2.60;;
23712;SDS011;12035;49.978;8.298;2022-08-05T13:47:17;5.07;;;2.70;;
23712;SDS011;12035;49.978;8.298;2022-08-05T13:52:15;3.90;;;3.13;;
23712;SDS011;12035;49.978;8.298;2022-08-05T13:57:13;4.60;;;3.70;;
23712;SDS011;12035;49.978;8.298;2022-08-05T14:02:12;4.65;;;3.58;;
23712;SDS011;12035;49.978;8.298;2022-08-05T14:07:10;5.43;;;3.90;;
23712;SDS011;12035;49.978;8.298;2022-08-05T14:12:07;4.20;;;3.72;;
23712;SDS011;12035;49.978;8.298;2022-08-05T14:17:04;4.43;;;3.92;;
23712;SDS011;12035;49.978;8.298;2022-08-05T14:22:03;5.15;;;4.38;;
23712;SDS011;12035;49.978;8.298;2022-08-05T14:27:00;7.18;;;6.10;;
23712;SDS011;12035;49.978;8.298;2022-08-05T14:31:57;10.52;;;9.15;;
23712;SDS011;12035;49.978;8.298;2022-08-05T14:36:54;13.95;;;11.20;;
23712;SDS011;12035;49.978;8.298;2022-08-05T14:41:52;12.57;;;10.85;;
23712;SDS011;12035;49.978;8.298;2022-08-05T14:46:49;13.25;;;10.07;;
23712;SDS011;12035;49.978;8.298;2022-08-05T14:51:47;10.68;;;9.38;;
23712;SDS011;12035;49.978;8.298;2022-08-05T14:56:44;12.57;;;9.60;;
23712;SDS011;12035;49.978;8.298;2022-08-05T15:01:43;9.30;;;7.88;;
23712;SDS011;12035;49.978;8.298;2022-08-05T15:06:40;8.27;;;6.53;;
23712;SDS011;12035;49.978;8.298;2022-08-05T15:11:37;7.82;;;5.18;;
23712;SDS011;12035;49.978;8.298;2022-08-05T15:16:34;6.20;;;4.57;;
23712;SDS011;12035;49.978;8.298;2022-08-05T15:21:33;5.25;;;3.88;;
23712;SDS011;12035;49.978;8.298;2022-08-05T15:26:30;3.10;;;2.40;;
23712;SDS011;12035;49.978;8.298;2022-08-05T15:31:27;3.63;;;2.80;;
23712;SDS011;12035;49.978;8.298;2022-08-05T15:36:24;3.83;;;2.45;;
23712;SDS011;12035;49.978;8.298;2022-08-05T15:41:22;2.88;;;1.63;;
23712;SDS011;12035;49.978;8.298;2022-08-05T15:46:20;2.40;;;1.52;;
23712;SDS011;12035;49.978;8.298;2022-08-05T15:51:17;3.38;;;1.50;;
23712;SDS011;12035;49.978;8.298;2022-08-05T15:56:16;3.67;;;1.42;;
23712;SDS011;12035;49.978;8.298;2022-08-05T16:01:16;2.80;;;1.60;;
23712;SDS011;12035;49.978;8.298;2022-08-05T16:06:13;3.42;;;1.50;;
23712;SDS011;12035;49.978;8.298;2022-08-05T16:11:10;2.75;;;1.38;;
23712;SDS011;12035;49.978;8.298;2022-08-05T16:16:07;2.75;;;1.20;;
23712;SDS011;12035;49.978;8.298;2022-08-05T16:21:07;2.90;;;1.10;;
23712;SDS011;12035;49.978;8.298;2022-08-05T16:26:05;4.13;;;1.05;;
23712;SDS011;12035;49.978;8.298;2022-08-05T16:31:04;2.00;;;0.77;;
23712;SDS011;12035;49.978;8.298;2022-08-05T16:36:02;1.50;;;0.75;;
23712;SDS011;12035;49.978;8.298;2022-08-05T16:41:02;1.40;;;0.82;;
23712;SDS011;12035;49.978;8.298;2022-08-05T16:45:59;1.15;;;0.65;;
23712;SDS011;12035;49.978;8.298;2022-08-05T16:50:58;1.00;;;0.52;;
23712;SDS011;12035;49.978;8.298;2022-08-05T16:55:55;0.88;;;0.60;;
23712;SDS011;12035;49.978;8.298;2022-08-05T17:00:54;1.70;;;0.70;;
23712;SDS011;12035;49.978;8.298;2022-08-05T17:05:51;1.52;;;0.60;;
23712;SDS011;12035;49.978;8.298;2022-08-05T17:10:48;1.05;;;0.60;;
23712;SDS011;12035;49.978;8.298;2022-08-05T17:15:45;0.90;;;0.70;;
23712;SDS011;12035;49.978;8.298;2022-08-05T17:20:44;1.30;;;0.57;;
23712;SDS011;12035;49.978;8.298;2022-08-05T17:25:41;4.10;;;0.63;;
23712;SDS011;12035;49.978;8.298;2022-08-05T17:30:38;1.13;;;0.60;;
23712;SDS011;12035;49.978;8.298;2022-08-05T17:35:35;1.23;;;0.50;;
23712;SDS011;12035;49.978;8.298;2022-08-05T17:40:34;1.67;;;0.63;;
23712;SDS011;12035;49.978;8.298;2022-08-05T17:45:31;1.58;;;0.90;;
23712;SDS011;12035;49.978;8.298;2022-08-05T17:50:28;1.88;;;0.50;;
23712;SDS011;12035;49.978;8.298;2022-08-05T17:55:26;1.33;;;0.82;;
23712;SDS011;12035;49.978;8.298;2022-08-05T18:00:25;4.30;;;0.93;;
23712;SDS011;12035;49.978;8.298;2022-08-05T18:05:23;2.33;;;1.05;;
23712;SDS011;12035;49.978;8.298;2022-08-05T18:10:20;2.13;;;1.05;;
23712;SDS011;12035;49.978;8.298;2022-08-05T18:15:17;2.10;;;0.90;;
23712;SDS011;12035;49.978;8.298;2022-08-05T18:20:16;1.42;;;0.75;;
23712;SDS011;12035;49.978;8.298;2022-08-05T18:25:13;1.80;;;0.90;;
23712;SDS011;12035;49.978;8.298;2022-08-05T18:30:10;6.53;;;0.98;;
23712;SDS011;12035;49.978;8.298;2022-08-05T18:35:08;1.95;;;0.98;;
23712;SDS011;12035;49.978;8.298;2022-08-05T18:40:08;2.72;;;1.05;;
23712;SDS011;12035;49.978;8.298;2022-08-05T18:45:07;2.42;;;1.20;;
23712;SDS011;12035;49.978;8.298;2022-08-05T18:50:05;3.60;;;1.48;;
23712;SDS011;12035;49.978;8.298;2022-08-05T18:55:21;3.08;;;0.77;;
23712;SDS011;12035;49.978;8.298;2022-08-05T19:00:19;2.78;;;1.00;;
23712;SDS011;12035;49.978;8.298;2022-08-05T19:05:17;1.50;;;0.90;;
23712;SDS011;12035;49.978;8.298;2022-08-05T19:10:18;2.47;;;1.00;;
23712;SDS011;12035;49.978;8.298;2022-08-05T19:15:17;2.45;;;0.90;;
23712;SDS011;12035;49.978;8.298;2022-08-05T19:20:14;3.83;;;1.27;;
23712;SDS011;12035;49.978;8.298;2022-08-05T19:25:11;1.85;;;1.05;;
23712;SDS011;12035;49.978;8.298;2022-08-05T19:30:09;1.83;;;0.88;;
23712;SDS011;12035;49.978;8.298;2022-08-05T19:35:09;3.30;;;0.90;;
23712;SDS011;12035;49.978;8.298;2022-08-05T19:40:07;2.17;;;0.98;;
23712;SDS011;12035;49.978;8.298;2022-08-05T19:45:06;2.08;;;1.00;;
23712;SDS011;12035;49.978;8.298;2022-08-05T19:50:05;3.40;;;1.10;;
23712;SDS011;12035;49.978;8.298;2022-08-05T19:55:04;1.23;;;0.70;;
23712;SDS011;12035;49.978;8.298;2022-08-05T20:00:03;2.03;;;1.10;;
23712;SDS011;12035;49.978;8.298;2022-08-05T20:05:01;2.03;;;1.02;;
23712;SDS011;12035;49.978;8.298;2022-08-05T20:09:59;1.63;;;0.90;;
23712;SDS011;12035;49.978;8.298;2022-08-05T20:14:57;2.05;;;0.93;;
23712;SDS011;12035;49.978;8.298;2022-08-05T20:19:55;2.33;;;1.00;;
23712;SDS011;12035;49.978;8.298;2022-08-05T20:24:52;2.30;;;0.82;;
23712;SDS011;12035;49.978;8.298;2022-08-05T20:29:49;2.42;;;1.33;;
23712;SDS011;12035;49.978;8.298;2022-08-05T20:34:48;2.33;;;1.00;;
23712;SDS011;12035;49.978;8.298;2022-08-05T20:39:45;2.22;;;1.00;;
23712;SDS011;12035;49.978;8.298;2022-08-05T20:44:42;3.30;;;1.00;;
23712;SDS011;12035;49.978;8.298;2022-08-05T20:49:39;2.97;;;0.80;;
23712;SDS011;12035;49.978;8.298;2022-08-05T20:54:37;2.78;;;1.17;;
23712;SDS011;12035;49.978;8.298;2022-08-05T20:59:35;2.33;;;1.13;;
23712;SDS011;12035;49.978;8.298;2022-08-05T21:04:32;3.63;;;0.90;;
23712;SDS011;12035;49.978;8.298;2022-08-05T21:09:29;2.67;;;1.10;;
23712;SDS011;12035;49.978;8.298;2022-08-05T21:14:28;1.85;;;0.75;;
23712;SDS011;12035;49.978;8.298;2022-08-05T21:19:25;2.28;;;1.10;;
23712;SDS011;12035;49.978;8.298;2022-08-05T21:24:22;3.03;;;1.13;;
23712;SDS011;12035;49.978;8.298;2022-08-05T21:29:19;1.25;;;0.82;;
23712;SDS011;12035;49.978;8.298;2022-08-05T21:34:18;2.58;;;1.00;;
23712;SDS011;12035;49.978;8.298;2022-08-05T21:39:15;2.00;;;0.98;;
23712;SDS011;12035;49.978;8.298;2022-08-05T21:44:12;2.45;;;0.90;;
23712;SDS011;12035;49.978;8.298;2022-08-05T21:49:10;3.33;;;0.90;;
23712;SDS011;12035;49.978;8.298;2022-08-05T21:54:08;1.10;;;0.80;;
23712;SDS011;12035;49.978;8.298;2022-08-05T21:59:05;2.42;;;0.80;;
23712;SDS011;12035;49.978;8.298;2022-08-05T22:04:02;2.72;;;0.90;;
23712;SDS011;12035;49.978;8.298;2022-08-05T22:09:00;2.20;;;0.60;;
23712;SDS011;12035;49.978;8.298;2022-08-05T22:13:58;2.10;;;0.90;;
23712;SDS011;12035;49.978;8.298;2022-08-05T22:18:56;1.30;;;0.60;;
23712;SDS011;12035;49.978;8.298;2022-08-05T22:23:53;4.00;;;1.10;;
23712;SDS011;12035;49.978;8.298;2022-08-05T22:29:09;2.25;;;0.85;;
23712;SDS011;12035;49.978;8.298;2022-08-05T22:34:06;1.92;;;0.88;;
23712;SDS011;12035;49.978;8.298;2022-08-05T22:39:03;2.03;;;0.82;;
23712;SDS011;12035;49.978;8.298;2022-08-05T22:44:00;2.75;;;0.85;;
23712;SDS011;12035;49.978;8.298;2022-08-05T22:48:59;1.90;;;0.90;;
23712;SDS011;12035;49.978;8.298;2022-08-05T22:53:56;2.97;;;1.05;;
23712;SDS011;12035;49.978;8.298;2022-08-05T22:58:53;1.30;;;0.70;;
23712;SDS011;12035;49.978;8.298;2022-08-05T23:03:50;2.72;;;0.80;;
23712;SDS011;12035;49.978;8.298;2022-08-05T23:08:49;1.30;;;0.73;;
23712;SDS011;12035;49.978;8.298;2022-08-05T23:13:46;1.48;;;0.60;;
23712;SDS011;12035;49.978;8.298;2022-08-05T23:18:43;2.35;;;0.90;;
23712;SDS011;12035;49.978;8.298;2022-08-05T23:23:40;2.22;;;0.80;;
23712;SDS011;12035;49.978;8.298;2022-08-05T23:28:39;1.58;;;0.80;;
23712;SDS011;12035;49.978;8.298;2022-08-05T23:33:36;2.45;;;0.80;;
23712;SDS011;12035;49.978;8.298;2022-08-05T23:38:33;1.92;;;0.80;;
23712;SDS011;12035;49.978;8.298;2022-08-05T23:43:30;1.27;;;0.70;;
23712;SDS011;12035;49.978;8.298;2022-08-05T23:48:28;2.67;;;0.70;;
23712;SDS011;12035;49.978;8.298;2022-08-05T23:53:25;1.05;;;0.55;;
23712;SDS011;12035;49.978;8.298;2022-08-05T23:58:22;3.42;;;0.77;;
